Main page
METAR-TAF:

METAR-TAF

Airports :

Adnan Menderes Airport

Izmir, Turkey

latitude: 38-16N, longitude: 027-09E, elevation: 125 m

Current weather observation

The report was made 24 minutes ago, at 19:50 UTC
Wind 3 kt from the South/Southwest, varying between South and West/Southwest
Temperature 12°C
Humidity 82%
Pressure 1017 hPa
Visibility 10 km or more
Scattered clouds at a height of 3000 ft
Broken clouds at a height of 10000 ft

METAR: LTBJ 151950Z 21003KT 180V240 9999 SCT030 BKN100 12/09 Q1017 NOSIG

Time: 23:14 (20:14 UTC)

Forecast

The report was made 3 hours and 34 minutes ago, at 16:40 UTC
Forecast valid from 15 at 18 UTC to 16 at 18 UTC
Wind 12 kt from the South/Southeast
Visibility: 8000 m
Scattered clouds at a height of 3000 ft
Broken clouds at a height of 10000 ft
light rain showers
Becoming
from 16 at 15 UTC to 16 at 17 UTC
Wind 2 kt from variable directions

TAF: LTBJ 151640Z 1518/1618 16012KT 8000 -SHRA SCT030 BKN100 BECMG 1615/1617 VRB02KT

Weather observations and forecasts of more than 4000 airports (METAR and TAF reports).

The available stations are represented by yellow and red dots on the map.

Hover mouse over dot to see the name of the station.

Then click to see weather observations and forecasts.

To change the map : click on the green buttons with a black cross to zoom in, on the green button with a dash to zoom out, or on the green arrows for adjacent maps.


METAR-TAF: